Terminal Aerodrome Forecast
Issued by NWS

Home | Current Version | Previous Version | Text Only | Print | Product List | Glossary On
Versions: 1 2 3 4 5 6 7 8 9 10 11 12
757
FTUS45 KTFX 272342
TAFLWT
TAF
KLWT 272342Z 2800/2824 13008KT P6SM FEW040 SCT250
     FM280900 13008KT P6SM BKN070=

USA.gov is the U.S. government's official web portal to all federal, state and local government web resources and services.